Time;durP1;ratioP1;P1;durP2;ratioP2;P2;SDS_P1;SDS_P2;PMS_P1;PMS_P2;Temp;Humidity;BMP_temperature;BMP_pressure;BME280_temperature;BME280_humidity;BME280_pressure;Samples;Min_cycle;Max_cycle;Signal;HPM_P1;HPM_P2
2022/05/23 00:01:21;;;;;;;6.25;4.95;;;;;;;14.85;66.02;98854.81;5032603;28;20435;-78
2022/05/23 00:03:47;;;;;;;7.45;5.15;;;;;;;14.87;65.75;98841.94;5033640;28;20057;-79
2022/05/23 00:06:18;;;;;;;6.20;4.80;;;;;;;14.92;66.06;98846.44;5033010;28;20081;-78
2022/05/23 00:08:44;;;;;;;9.35;5.43;;;;;;;14.94;65.78;98841.25;5033680;28;20032;-79
2022/05/23 00:11:10;;;;;;;8.45;5.15;;;;;;;15.02;65.56;98847.78;5033205;28;20036;-79
2022/05/23 00:13:36;;;;;;;8.45;5.40;;;;;;;15.05;65.03;98843.41;5013956;28;20030;-79
2022/05/23 00:16:05;;;;;;;7.90;4.95;;;;;;;15.09;65.36;98847.09;5020786;28;20568;-78
2022/05/23 00:18:31;;;;;;;8.07;5.25;;;;;;;15.16;65.13;98836.75;5029413;28;20455;-79
2022/05/23 00:20:56;;;;;;;7.25;5.07;;;;;;;15.23;64.54;98838.00;5033421;28;20053;-79
2022/05/23 00:23:25;;;;;;;9.52;5.45;;;;;;;15.06;65.08;98831.75;5032571;28;20031;-79
2022/05/23 00:25:50;;;;;;;5.32;4.82;;;;;;;14.96;65.33;98833.25;5014997;28;20503;-78
2022/05/23 00:28:16;;;;;;;6.85;5.43;;;;;;;15.11;64.83;98839.06;5015588;28;20084;-79
2022/05/23 00:30:41;;;;;;;6.57;5.35;;;;;;;15.12;64.98;98840.69;5030701;28;20025;-78
2022/05/23 00:35:54;;;;;;;6.95;4.80;;;;;;;15.12;64.74;98829.44;5015883;28;20040;-80
2022/05/23 00:38:19;;;;;;;6.25;5.03;;;;;;;15.11;64.94;98833.44;4995811;28;20022;-79
2022/05/23 00:40:48;;;;;;;7.95;5.30;;;;;;;15.23;64.54;98838.84;5014832;28;20075;-80
2022/05/23 00:43:20;;;;;;;9.43;5.40;;;;;;;15.34;63.75;98833.34;5032929;28;20083;-79
2022/05/23 00:45:50;;;;;;;11.35;5.28;;;;;;;15.24;64.40;98840.47;5026135;28;20026;-79
2022/05/23 00:48:19;;;;;;;6.80;5.63;;;;;;;15.19;64.44;98839.97;5032922;28;20180;-78
2022/05/23 00:50:53;;;;;;;7.05;5.07;;;;;;;15.13;64.20;98834.66;5031082;28;20466;-78
2022/05/23 00:53:29;;;;;;;6.75;5.60;;;;;;;14.95;64.89;98828.78;4995539;28;20037;-80
2022/05/23 00:55:55;;;;;;;12.75;6.07;;;;;;;14.79;65.65;98839.41;5027578;28;20128;-79
2022/05/23 00:58:28;;;;;;;7.05;5.35;;;;;;;14.53;66.44;98829.75;5032806;28;20388;-80
2022/05/23 01:00:58;;;;;;;9.88;6.35;;;;;;;14.57;66.46;98825.81;5032780;28;20029;-79
2022/05/23 01:03:23;;;;;;;9.68;5.97;;;;;;;14.61;66.02;98823.03;5032662;28;20021;-79
2022/05/23 01:05:51;;;;;;;6.80;5.80;;;;;;;14.68;65.58;98825.94;5030234;28;20103;-78
2022/05/23 01:08:17;;;;;;;5.65;5.05;;;;;;;14.76;65.79;98828.91;5014104;28;20144;-79
2022/05/23 01:10:44;;;;;;;8.27;5.50;;;;;;;14.79;65.34;98822.53;5032221;28;20108;-78
2022/05/23 01:13:10;;;;;;;9.68;6.28;;;;;;;14.78;65.44;98826.53;5032060;28;20025;-79
2022/05/23 01:15:35;;;;;;;8.70;6.45;;;;;;;14.85;65.32;98821.81;5032161;28;20108;-78
2022/05/23 01:18:02;;;;;;;6.93;5.97;;;;;;;14.82;65.04;98818.94;5028883;28;20026;-79
2022/05/23 01:20:29;;;;;;;6.18;5.57;;;;;;;14.83;65.43;98823.38;5022378;28;20472;-79
2022/05/23 01:23:25;;;;;;;9.43;5.85;;;;;;;14.85;64.68;98826.66;5014244;28;20079;-78
2022/05/23 01:25:50;;;;;;;8.45;5.82;;;;;;;14.89;64.78;98816.25;5028813;28;20084;-78
2022/05/23 01:28:17;;;;;;;9.15;6.10;;;;;;;14.88;64.65;98825.88;5011912;28;20042;-78
2022/05/23 01:30:44;;;;;;;9.38;6.40;;;;;;;14.83;64.81;98831.81;5026793;28;20025;-79
2022/05/23 01:33:11;;;;;;;6.38;5.68;;;;;;;14.83;65.00;98821.38;5032157;28;20350;-78
2022/05/23 01:35:37;;;;;;;10.18;6.72;;;;;;;14.88;64.75;98825.88;5031681;28;20024;-79
2022/05/23 01:38:04;;;;;;;6.65;5.95;;;;;;;14.92;64.75;98826.72;5014140;28;20348;-78
2022/05/23 01:40:30;;;;;;;8.43;5.68;;;;;;;15.12;64.30;98818.16;5014197;28;20113;-79
2022/05/23 01:42:56;;;;;;;11.25;6.15;;;;;;;15.27;63.21;98819.16;5029510;28;20025;-79
2022/05/23 01:45:25;;;;;;;7.28;5.28;;;;;;;15.40;62.62;98819.72;5027819;28;20021;-79
2022/05/23 01:47:50;;;;;;;11.75;6.35;;;;;;;15.33;62.81;98812.00;5031711;28;20025;-79
2022/05/23 01:50:16;;;;;;;13.35;6.15;;;;;;;15.21;62.97;98818.69;5031704;28;20033;-79
2022/05/23 01:52:42;;;;;;;10.02;6.50;;;;;;;15.34;63.10;98821.25;5031451;28;20025;-79
2022/05/23 01:55:08;;;;;;;7.78;6.00;;;;;;;15.21;62.89;98818.69;5031645;28;20021;-78
2022/05/23 01:57:34;;;;;;;7.32;5.70;;;;;;;15.14;63.68;98827.88;5018153;28;20030;-78
2022/05/23 02:02:47;;;;;;;10.88;6.65;;;;;;;14.79;64.10;98823.34;5031228;28;20527;-79
2022/05/23 02:05:14;;;;;;;7.90;6.25;;;;;;;14.67;64.72;98824.34;5031535;28;20428;-79
2022/05/23 02:07:40;;;;;;;7.97;6.80;;;;;;;14.84;64.35;98808.94;5031492;28;20029;-79
2022/05/23 02:10:06;;;;;;;10.82;6.50;;;;;;;14.72;64.38;98811.97;5031307;28;20084;-79
2022/05/23 02:12:31;;;;;;;8.13;6.05;;;;;;;14.81;64.59;98806.06;5011495;28;20029;-80
2022/05/23 02:14:57;;;;;;;10.98;6.60;;;;;;;14.91;64.11;98804.59;5029665;28;20029;-79
2022/05/23 02:17:23;;;;;;;8.35;7.05;;;;;;;15.01;64.16;98801.94;5013448;28;20029;-79
2022/05/23 02:19:48;;;;;;;7.25;6.60;;;;;;;15.13;63.65;98814.16;5013726;28;20025;-80
2022/05/23 02:22:14;;;;;;;12.27;6.90;;;;;;;15.22;63.68;98816.66;5013750;28;20025;-80
2022/05/23 02:24:40;;;;;;;8.00;7.18;;;;;;;15.24;63.44;98814.28;5013651;28;20446;-80
2022/05/23 02:27:07;;;;;;;7.22;6.53;;;;;;;15.28;62.99;98810.31;5031435;28;20022;-79
2022/05/23 02:29:33;;;;;;;7.45;6.75;;;;;;;15.36;62.99;98799.94;5018602;28;20095;-79
2022/05/23 02:31:58;;;;;;;9.32;7.07;;;;;;;15.33;63.04;98811.19;5013654;28;20086;-79
2022/05/23 02:34:24;;;;;;;11.98;7.07;;;;;;;15.36;62.84;98810.41;5031398;28;20097;-80
2022/05/23 02:36:50;;;;;;;13.02;6.93;;;;;;;15.27;63.18;98813.53;5029829;28;20074;-79
2022/05/23 02:39:16;;;;;;;12.20;5.88;;;;;;;15.29;63.25;98820.38;5032346;28;20491;-80
2022/05/23 02:41:42;;;;;;;41.85;8.88;;;;;;;15.23;63.57;98819.13;5035282;28;20053;-80
2022/05/23 02:44:07;;;;;;;12.13;6.88;;;;;;;15.15;63.63;98823.84;5017048;28;20056;-79
2022/05/23 02:46:33;;;;;;;7.57;6.43;;;;;;;14.99;63.75;98811.94;5034636;28;20025;-78
2022/05/23 02:48:59;;;;;;;8.60;6.60;;;;;;;14.90;64.41;98812.22;5035181;28;20079;-79
2022/05/23 02:51:25;;;;;;;8.52;6.80;;;;;;;14.74;65.02;98815.22;5032642;28;20087;-79
2022/05/23 02:53:51;;;;;;;11.18;6.78;;;;;;;14.72;65.15;98824.06;4997669;28;20021;-79
2022/05/23 02:56:18;;;;;;;7.47;6.45;;;;;;;14.69;65.14;98821.94;5009452;28;20021;-78
2022/05/23 02:58:44;;;;;;;12.85;6.80;;;;;;;14.60;65.94;98819.41;5034953;28;20075;-78
2022/05/23 03:01:11;;;;;;;11.10;7.75;;;;;;;14.46;66.30;98822.78;5034717;28;20113;-78
2022/05/23 03:03:37;;;;;;;10.35;6.93;;;;;;;14.48;66.20;98818.78;5034928;28;20049;-79
2022/05/23 03:06:04;;;;;;;9.57;6.85;;;;;;;14.44;66.34;98815.94;5011377;28;20061;-78
2022/05/23 03:08:30;;;;;;;14.40;7.13;;;;;;;14.45;65.94;98815.53;5004696;28;20022;-79
2022/05/23 03:10:59;;;;;;;12.80;7.25;;;;;;;14.58;65.75;98812.53;5012275;28;20045;-79
2022/05/23 03:13:25;;;;;;;12.50;6.55;;;;;;;14.75;64.85;98819.66;5015069;28;20061;-79
2022/05/23 03:15:51;;;;;;;16.42;7.13;;;;;;;14.91;64.28;98819.47;5014986;28;20033;-79
2022/05/23 03:18:17;;;;;;;11.02;6.80;;;;;;;15.05;63.69;98820.88;5014359;28;20030;-78
2022/05/23 03:20:43;;;;;;;9.40;6.47;;;;;;;15.15;63.23;98823.03;5014371;28;20113;-79
2022/05/23 03:28:40;;;;;;;28.70;8.00;;;;;;;15.24;62.84;98822.72;5005403;28;20061;-79
2022/05/23 03:31:06;;;;;;;18.13;8.27;;;;;;;15.36;62.78;98822.47;5012760;28;20473;-78
2022/05/23 03:33:32;;;;;;;7.82;6.90;;;;;;;15.39;63.12;98833.00;5014498;28;20026;-78
2022/05/23 03:35:58;;;;;;;10.63;7.15;;;;;;;15.39;62.75;98833.00;5013387;28;20026;-78
2022/05/23 03:38:23;;;;;;;10.32;6.95;;;;;;;15.43;62.58;98839.50;5014358;28;20467;-79
2022/05/23 03:40:49;;;;;;;18.80;7.25;;;;;;;15.33;63.00;98833.72;5014141;28;20044;-78
2022/05/23 03:43:15;;;;;;;9.23;7.05;;;;;;;15.26;63.40;98829.63;5014034;28;20029;-79
2022/05/23 03:45:41;;;;;;;17.73;7.25;;;;;;;15.21;63.52;98827.16;5014341;28;20533;-79
2022/05/23 03:48:07;;;;;;;17.02;7.40;;;;;;;15.28;63.78;98826.44;5013936;28;20105;-79
2022/05/23 03:50:34;;;;;;;14.70;7.63;;;;;;;15.25;63.55;98828.00;5013436;28;20467;-78
2022/05/23 03:53:00;;;;;;;12.57;8.10;;;;;;;15.30;63.56;98835.31;5012045;28;20409;-79
2022/05/23 03:55:26;;;;;;;18.38;7.72;;;;;;;15.33;63.84;98839.38;5014100;28;20505;-79
2022/05/23 03:57:51;;;;;;;21.20;8.27;;;;;;;15.33;64.37;98842.97;5014346;28;20101;-78
2022/05/23 04:00:18;;;;;;;12.80;7.55;;;;;;;15.29;64.12;98837.28;5012655;28;20142;-79
2022/05/23 04:02:44;;;;;;;10.20;7.68;;;;;;;15.26;64.34;98832.44;5011943;28;20169;-79
2022/05/23 04:05:11;;;;;;;13.27;7.55;;;;;;;15.26;64.92;98840.06;5017913;28;20512;-78
2022/05/23 04:07:38;;;;;;;15.30;8.98;;;;;;;15.22;65.09;98836.38;5031046;28;20029;-78
2022/05/23 04:10:09;;;;;;;13.45;8.15;;;;;;;15.17;65.36;98831.91;5007881;28;20558;-76
2022/05/23 04:12:36;;;;;;;15.80;6.93;;;;;;;15.02;65.98;98828.91;5033264;28;20459;-78
2022/05/23 04:15:03;;;;;;;8.85;7.10;;;;;;;15.09;66.12;98842.25;5015905;28;20033;-81
2022/05/23 04:17:29;;;;;;;13.02;8.00;;;;;;;15.01;66.56;98840.53;5027062;28;20022;-76
2022/05/23 04:19:54;;;;;;;19.02;15.63;;;;;;;14.98;66.62;98835.66;5031053;28;20041;-78
2022/05/23 04:22:20;;;;;;;69.85;52.05;;;;;;;14.99;66.61;98843.75;5016041;28;20166;-84
2022/05/23 04:24:45;;;;;;;126.35;99.63;;;;;;;15.04;67.15;98838.97;5021756;28;20029;-80
2022/05/23 04:27:11;;;;;;;106.78;79.68;;;;;;;15.07;67.06;98836.22;5015111;28;20373;-84
2022/05/23 04:29:38;;;;;;;64.07;41.67;;;;;;;15.07;67.03;98826.94;5015545;28;20095;-81
2022/05/23 04:35:12;;;;;;;16.88;12.48;;;;;;;15.18;66.41;98827.88;5014276;28;20028;-80
2022/05/23 04:37:41;;;;;;;21.30;9.23;;;;;;;15.30;65.93;98822.00;5020211;28;20044;-80
2022/05/23 04:40:07;;;;;;;9.88;7.68;;;;;;;15.25;65.97;98811.09;5033102;28;20029;-81
2022/05/23 04:42:34;;;;;;;15.07;8.80;;;;;;;15.24;66.10;98809.47;5033089;28;20076;-80
2022/05/23 04:45:00;;;;;;;9.30;7.88;;;;;;;15.46;66.19;98825.81;5033129;28;20103;-75
2022/05/23 04:50:15;;;;;;;24.80;8.55;;;;;;;15.54;66.08;98821.91;4992563;28;20136;-79
2022/05/23 04:52:42;;;;;;;11.10;8.18;;;;;;;15.48;65.88;98806.53;5014966;28;20029;-80
2022/05/23 04:55:10;;;;;;;12.52;8.88;;;;;;;15.61;66.27;98805.06;4995531;28;20120;-79
2022/05/23 04:57:36;;;;;;;15.25;8.95;;;;;;;15.71;66.00;98803.56;5013018;28;20447;-79
2022/05/23 05:00:09;;;;;;;19.75;9.85;;;;;;;15.83;66.30;98814.56;5018103;28;20045;-79
2022/05/23 05:02:36;;;;;;;15.48;8.68;;;;;;;15.91;66.11;98798.56;5031624;28;20033;-80
2022/05/23 05:05:03;;;;;;;21.70;10.45;;;;;;;16.05;65.23;98806.38;5029540;28;20049;-79
2022/05/23 05:07:30;;;;;;;16.70;9.25;;;;;;;16.17;65.75;98816.53;5022219;28;20420;-78
2022/05/23 05:09:56;;;;;;;18.05;8.38;;;;;;;16.24;64.65;98802.50;5012355;28;20037;-79
2022/05/23 05:12:22;;;;;;;13.68;8.23;;;;;;;16.39;64.76;98796.97;5013747;28;20081;-79
2022/05/23 05:14:48;;;;;;;20.50;8.20;;;;;;;16.56;63.81;98787.81;5013968;28;20074;-79
2022/05/23 05:17:14;;;;;;;28.67;9.25;;;;;;;16.83;63.29;98804.56;5014443;28;20138;-79
2022/05/23 05:19:41;;;;;;;14.52;7.57;;;;;;;16.89;63.13;98793.66;5032700;28;20116;-80
2022/05/23 05:22:10;;;;;;;13.10;7.22;;;;;;;17.35;61.61;98817.75;5030354;28;20021;-78
2022/05/23 05:24:37;;;;;;;10.02;6.53;;;;;;;17.53;59.89;98795.22;5032263;28;20473;-80
2022/05/23 05:27:03;;;;;;;13.98;7.90;;;;;;;17.80;59.88;98816.69;5014747;28;20428;-79
2022/05/23 05:29:30;;;;;;;17.67;7.50;;;;;;;17.82;59.78;98811.44;5014299;28;20033;-80
2022/05/23 05:32:09;;;;;;;13.38;7.80;;;;;;;17.92;59.56;98807.00;4997895;28;20602;-79
2022/05/23 05:35:00;;;;;;;10.25;6.65;;;;;;;18.19;58.93;98818.81;5014517;28;20032;-79
2022/05/23 05:37:31;;;;;;;7.97;5.93;;;;;;;18.57;58.62;98815.56;5022501;28;20041;-79
2022/05/23 05:39:58;;;;;;;13.55;6.28;;;;;;;18.93;56.63;98814.72;5021846;28;20090;-80
2022/05/23 05:42:32;;;;;;;6.72;5.70;;;;;;;19.17;55.20;98804.53;5017849;28;20032;-80
2022/05/23 05:45:04;;;;;;;9.75;6.05;;;;;;;19.33;54.09;98806.13;5016702;28;20405;-80
2022/05/23 05:47:36;;;;;;;6.07;5.47;;;;;;;19.15;53.37;98787.16;4994240;28;20038;-80
2022/05/23 05:50:09;;;;;;;13.50;5.43;;;;;;;19.43;53.25;98808.13;5015020;28;20087;-79
2022/05/23 05:52:37;;;;;;;8.13;5.22;;;;;;;19.48;53.59;98795.50;5028600;28;20037;-79
2022/05/23 05:55:07;;;;;;;14.95;6.25;;;;;;;19.53;53.88;98789.44;5010886;28;20064;-80
2022/05/23 05:57:35;;;;;;;12.52;5.88;;;;;;;19.71;52.88;98797.84;5018861;28;20022;-80
2022/05/23 06:00:01;;;;;;;6.97;4.82;;;;;;;19.68;50.29;98806.38;5012776;28;20111;-80
2022/05/23 06:02:26;;;;;;;9.50;5.85;;;;;;;19.63;51.15;98784.91;5009620;28;20504;-80
2022/05/23 06:04:53;;;;;;;7.25;5.00;;;;;;;19.84;51.59;98803.81;5009429;28;20150;-80
2022/05/23 06:13:13;;;;;;;10.45;5.68;;;;;;;20.06;50.48;98804.53;5028403;28;20055;-80
2022/05/23 06:15:40;;;;;;;5.78;5.00;;;;;;;20.29;49.84;98802.34;5020906;28;20453;-78
2022/05/23 06:18:06;;;;;;;11.70;5.57;;;;;;;20.53;49.57;98799.72;5003299;28;20049;-78
2022/05/23 06:20:31;;;;;;;5.47;4.97;;;;;;;20.75;49.12;98792.59;4998948;28;20064;-78
2022/05/23 06:22:58;;;;;;;14.13;5.30;;;;;;;20.98;48.13;98791.19;5025491;28;20472;-78
2022/05/23 06:25:23;;;;;;;10.55;4.72;;;;;;;21.23;46.57;98786.41;5026622;28;20036;-77
2022/05/23 06:27:49;;;;;;;5.78;4.60;;;;;;;21.25;46.46;98779.09;5003983;28;20029;-78
2022/05/23 06:30:17;;;;;;;7.93;5.30;;;;;;;21.44;47.10;98786.16;5031386;28;20029;-78
2022/05/23 06:32:43;;;;;;;5.43;4.93;;;;;;;21.60;45.93;98781.91;5031494;28;20076;-75
2022/05/23 06:35:10;;;;;;;13.10;5.43;;;;;;;21.74;45.32;98776.03;5030164;28;20048;-80
2022/05/23 06:37:38;;;;;;;6.63;5.53;;;;;;;21.86;45.64;98785.22;4999476;28;20075;-82
2022/05/23 06:40:06;;;;;;;14.48;7.65;;;;;;;22.00;44.89;98785.00;5016860;28;20460;-79
2022/05/23 06:42:32;;;;;;;19.02;6.07;;;;;;;22.09;44.61;98784.47;5026839;28;20055;-78
2022/05/23 06:44:59;;;;;;;7.57;4.95;;;;;;;22.19;45.33;98781.88;5018263;28;20430;-75
2022/05/23 06:47:25;;;;;;;7.78;4.93;;;;;;;22.21;45.12;98787.94;5024812;28;20026;-79
2022/05/23 06:49:51;;;;;;;14.30;5.32;;;;;;;22.05;45.17;98786.56;5013334;28;20488;-83
2022/05/23 06:52:16;;;;;;;9.70;5.10;;;;;;;21.72;45.52;98780.53;4994157;28;20131;-77
2022/05/23 06:54:42;;;;;;;12.77;5.63;;;;;;;21.87;46.01;98776.25;5026294;28;20036;-82
2022/05/23 06:57:09;;;;;;;6.15;4.20;;;;;;;21.89;45.10;98784.38;5012050;28;20025;-76
2022/05/23 06:59:35;;;;;;;7.90;4.50;;;;;;;21.82;43.05;98773.06;5030593;28;20036;-75
2022/05/23 07:02:01;;;;;;;19.30;4.82;;;;;;;22.14;41.07;98784.00;5030993;28;20456;-76
2022/05/23 07:12:19;;;;;;;9.68;4.47;;;;;;;22.38;40.51;98766.09;5013818;28;20041;-79
2022/05/23 07:12:42;;;;;;;5.82;3.67;;;;;;;22.53;37.69;98761.78;5016752;28;20478;-78
2022/05/23 07:15:08;;;;;;;10.20;3.95;;;;;;;22.92;38.11;98767.19;5013306;28;20033;-76
2022/05/23 07:17:34;;;;;;;6.63;4.15;;;;;;;23.20;36.98;98751.56;4996495;28;20044;-75
2022/05/23 07:19:59;;;;;;;7.90;3.97;;;;;;;22.97;37.02;98758.94;5029641;28;20025;-77
2022/05/23 07:22:25;;;;;;;4.53;3.13;;;;;;;23.23;36.85;98755.59;5029064;28;20057;-73
2022/05/23 07:24:51;;;;;;;12.05;3.20;;;;;;;23.28;35.98;98758.75;5013268;28;20043;-77
2022/05/23 07:27:17;;;;;;;3.13;2.85;;;;;;;23.17;36.61;98763.03;5014182;28;20447;-73
2022/05/23 07:29:42;;;;;;;3.15;2.85;;;;;;;23.10;35.17;98767.66;5028565;28;20084;-75
2022/05/23 07:32:11;;;;;;;3.38;3.08;;;;;;;23.28;36.21;98760.78;5031387;28;20028;-75
2022/05/23 07:34:37;;;;;;;4.82;3.72;;;;;;;23.41;36.68;98752.38;5033895;28;20076;-81
2022/05/23 07:37:03;;;;;;;12.52;3.53;;;;;;;23.52;34.27;98738.69;5031957;28;20467;-74
2022/05/23 07:39:28;;;;;;;5.60;3.17;;;;;;;23.61;35.67;98746.63;5029820;28;20032;-75
2022/05/23 07:41:54;;;;;;;3.83;3.05;;;;;;;23.61;35.54;98749.50;5025623;28;20112;-75
2022/05/23 07:44:20;;;;;;;5.25;3.00;;;;;;;23.56;35.44;98747.19;5012651;28;20025;-76
2022/05/23 07:46:45;;;;;;;4.95;3.22;;;;;;;23.86;36.25;98744.47;5021770;28;20476;-78
2022/05/23 07:49:11;;;;;;;6.45;2.70;;;;;;;24.19;35.93;98751.03;5013272;28;20112;-78
2022/05/23 07:51:37;;;;;;;14.38;3.78;;;;;;;24.51;35.63;98760.03;5001072;28;20121;-78
2022/05/23 08:02:17;;;;;;;7.05;3.10;;;;;;;24.07;35.63;98744.00;5031249;28;20107;-84
2022/05/23 08:04:43;;;;;;;5.20;3.03;;;;;;;24.57;34.99;98746.00;5025197;28;20030;-80
2022/05/23 08:07:09;;;;;;;3.20;2.90;;;;;;;24.35;34.51;98740.84;5008614;28;20046;-79
2022/05/23 08:09:36;;;;;;;16.48;3.95;;;;;;;24.64;34.40;98735.16;5003167;28;20116;-76
2022/05/23 08:12:04;;;;;;;4.38;2.83;;;;;;;24.85;34.65;98737.91;5023290;28;20036;-76
2022/05/23 08:14:30;;;;;;;8.15;2.88;;;;;;;25.04;34.84;98739.84;5005684;28;20117;-76
2022/05/23 08:16:56;;;;;;;5.40;2.70;;;;;;;25.26;33.80;98729.81;5010414;28;20029;-78
2022/05/23 08:19:21;;;;;;;5.25;3.17;;;;;;;25.48;33.46;98722.19;5004325;28;20480;-73
2022/05/23 08:21:56;;;;;;;10.43;3.63;;;;;;;25.60;34.16;98734.97;5023152;28;20033;-76
2022/05/23 08:24:22;;;;;;;6.07;2.83;;;;;;;25.67;33.09;98728.19;5028135;28;20082;-77
2022/05/23 08:26:48;;;;;;;4.05;3.42;;;;;;;25.42;33.46;98724.03;5009110;28;20454;-75
2022/05/23 08:29:14;;;;;;;11.05;3.67;;;;;;;25.64;33.51;98726.22;5049290;28;20033;-77
2022/05/23 08:31:39;;;;;;;5.45;2.72;;;;;;;25.81;33.49;98723.28;5014110;28;20078;-77
2022/05/23 08:34:06;;;;;;;8.13;3.80;;;;;;;25.93;33.19;98717.53;5022510;28;20555;-77
2022/05/23 08:36:32;;;;;;;32.25;4.57;;;;;;;26.00;32.86;98725.09;5022095;28;20049;-73
2022/05/23 08:38:58;;;;;;;7.47;2.90;;;;;;;26.13;33.35;98719.34;5036357;28;20083;-74
2022/05/23 08:41:32;;;;;;;14.30;6.57;;;;;;;26.42;33.23;98723.34;5029073;28;20480;-73
2022/05/23 08:44:40;;;;;;;18.35;3.72;;;;;;;26.62;32.47;98717.31;5040369;28;20091;-72
2022/05/23 08:47:11;;;;;;;10.90;3.85;;;;;;;26.40;32.96;98709.47;5029364;28;20033;-74
2022/05/23 08:49:45;;;;;;;4.43;2.85;;;;;;;26.41;31.33;98708.19;5013939;28;20037;-74
2022/05/23 08:52:33;;;;;;;6.97;3.22;;;;;;;26.19;31.72;98703.22;5030547;28;20034;-74
2022/05/23 08:55:06;;;;;;;6.90;3.20;;;;;;;26.39;31.82;98707.88;5020775;28;20034;-73
2022/05/23 08:57:40;;;;;;;7.85;4.78;;;;;;;26.69;32.08;98705.59;5018755;28;20053;-75
2022/05/23 09:00:16;;;;;;;6.88;3.88;;;;;;;26.84;30.48;98702.19;5032492;28;20037;-74
2022/05/23 09:02:51;;;;;;;10.73;3.67;;;;;;;26.83;31.11;98712.06;5022879;28;20033;-75
2022/05/23 09:05:23;;;;;;;5.47;3.75;;;;;;;26.73;30.33;98694.78;5023588;28;20782;-76
2022/05/23 09:08:01;;;;;;;15.98;3.70;;;;;;;26.66;30.85;98706.50;5023443;28;20093;-75
2022/05/23 09:10:39;;;;;;;5.57;3.45;;;;;;;26.56;30.78;98690.50;5027303;28;20037;-74
2022/05/23 09:13:07;;;;;;;6.20;3.33;;;;;;;26.40;31.09;98685.75;5015434;28;20100;-76
2022/05/23 09:15:33;;;;;;;13.65;3.42;;;;;;;26.46;30.56;98689.59;5009714;28;20040;-73
2022/05/23 09:18:04;;;;;;;6.65;3.65;;;;;;;26.54;31.33;98701.63;5021724;28;20083;-74
2022/05/23 09:20:43;;;;;;;9.23;3.50;;;;;;;26.45;30.91;98688.81;5017405;28;20037;-74
2022/05/23 09:23:13;;;;;;;12.77;3.28;;;;;;;26.42;31.27;98688.94;5007207;28;20083;-74
2022/05/23 09:25:39;;;;;;;4.25;2.95;;;;;;;26.25;31.39;98682.56;5030153;28;20048;-72
2022/05/23 09:28:35;;;;;;;4.35;3.28;;;;;;;26.75;31.85;98689.38;5013336;28;20038;-75
2022/05/23 09:31:17;;;;;;;6.45;3.58;;;;;;;26.91;30.96;98676.94;5011194;28;20444;-74
2022/05/23 09:33:46;;;;;;;3.67;2.92;;;;;;;27.10;29.31;98679.16;5002914;28;20026;-77
2022/05/23 09:36:20;;;;;;;13.85;3.50;;;;;;;26.74;30.02;98687.78;5018067;28;20052;-74
2022/05/23 09:38:56;;;;;;;5.03;2.80;;;;;;;27.04;29.65;98673.22;5017007;28;20040;-75
2022/05/23 09:49:48;;;;;;;12.15;6.60;;;;;;;26.70;27.62;98657.63;5009724;28;20542;-75
2022/05/23 09:52:27;;;;;;;7.85;3.80;;;;;;;26.73;27.01;98668.97;5017703;28;20068;-76
2022/05/23 09:55:00;;;;;;;20.75;8.68;;;;;;;26.89;27.74;98658.59;5007508;28;20408;-75
2022/05/23 09:57:39;;;;;;;13.40;6.15;;;;;;;26.72;27.89;98655.91;5013406;28;20042;-78
2022/05/23 10:00:22;;;;;;;5.70;5.13;;;;;;;26.24;29.54;98658.84;5005102;28;20524;-78
2022/05/23 10:03:01;;;;;;;18.85;12.57;;;;;;;26.03;29.26;98664.03;5012512;28;20521;-81
2022/05/23 10:05:42;;;;;;;22.58;4.38;;;;;;;25.95;29.29;98656.16;5003320;28;20056;-78
2022/05/23 10:08:29;;;;;;;12.90;4.03;;;;;;;26.27;28.99;98660.78;5024975;28;20037;-77
2022/05/23 10:11:12;;;;;;;16.08;8.98;;;;;;;26.43;28.62;98664.75;5020831;28;20061;-74
2022/05/23 10:13:41;;;;;;;15.10;10.02;;;;;;;26.11;29.44;98660.91;5022173;28;20400;-74
2022/05/23 10:16:16;;;;;;;14.50;5.70;;;;;;;25.98;31.41;98658.88;5031628;28;20036;-80
2022/05/23 10:19:06;;;;;;;79.72;11.00;;;;;;;26.54;31.65;98650.81;5030348;28;20054;-75
2022/05/23 10:21:37;;;;;;;5.50;3.70;;;;;;;26.97;30.56;98653.38;5013630;28;20048;-74
2022/05/23 10:24:07;;;;;;;8.18;4.47;;;;;;;26.85;30.75;98652.19;5013645;28;20026;-74
2022/05/23 10:26:45;;;;;;;8.45;4.53;;;;;;;27.01;29.21;98634.78;5026333;28;20026;-75
2022/05/23 10:29:47;;;;;;;11.93;3.50;;;;;;;26.89;28.78;98645.06;5011807;28;20110;-74
2022/05/23 10:32:21;;;;;;;5.78;3.97;;;;;;;27.21;28.93;98639.34;4994114;28;20018;-74
2022/05/23 10:34:50;;;;;;;12.73;5.20;;;;;;;26.84;28.08;98639.09;5025914;28;20026;-74
2022/05/23 10:37:22;;;;;;;7.15;3.05;;;;;;;26.72;27.85;98649.38;5030960;28;20021;-74
2022/05/23 10:42:53;;;;;;;6.07;2.58;;;;;;;26.75;27.21;98634.91;5031375;28;20036;-75
2022/05/23 10:45:30;;;;;;;10.55;3.03;;;;;;;26.72;28.13;98638.69;5031368;28;20128;-74
2022/05/23 10:48:22;;;;;;;18.75;7.25;;;;;;;26.73;28.33;98637.44;5029096;28;20084;-77
2022/05/23 10:50:56;;;;;;;13.52;8.98;;;;;;;26.78;27.15;98636.03;5023314;28;20029;-76
2022/05/23 10:54:01;;;;;;;25.58;14.23;;;;;;;26.61;27.71;98601.84;5023730;28;20079;-75
2022/05/23 10:56:57;;;;;;;4.85;3.70;;;;;;;26.85;27.51;98630.03;5031088;28;20495;-72
2022/05/23 10:59:35;;;;;;;4.65;2.17;;;;;;;27.50;28.09;98632.47;5013510;28;20376;-73
2022/05/23 11:02:28;;;;;;;5.03;2.17;;;;;;;27.37;26.47;98629.72;5034923;28;20048;-73
2022/05/23 11:05:03;;;;;;;13.20;10.30;;;;;;;27.15;26.30;98624.00;5014169;28;20025;-73
2022/05/23 11:07:35;;;;;;;2.67;2.10;;;;;;;27.20;26.85;98623.41;5013748;28;20034;-73
2022/05/23 11:10:15;;;;;;;14.95;9.43;;;;;;;27.27;27.77;98619.47;5013754;28;20037;-74
2022/05/23 11:13:00;;;;;;;3.97;2.08;;;;;;;27.49;27.27;98605.03;5015247;28;20037;-73
2022/05/23 11:15:41;;;;;;;5.72;2.83;;;;;;;27.14;27.97;98608.88;5014900;28;20109;-73
2022/05/23 11:18:46;;;;;;;7.82;2.22;;;;;;;27.17;27.50;98605.06;4997770;28;20191;-73
2022/05/23 11:21:18;;;;;;;4.85;2.35;;;;;;;27.21;28.15;98604.09;5014248;28;20030;-73
2022/05/23 11:23:53;;;;;;;6.80;4.18;;;;;;;27.34;26.99;98590.47;5014699;28;20041;-73
2022/05/23 11:26:31;;;;;;;5.78;2.75;;;;;;;27.92;26.85;98598.78;5014602;28;20515;-73
2022/05/23 11:34:43;;;;;;;6.28;1.77;;;;;;;27.74;26.48;98591.72;5024210;28;20120;-73
2022/05/23 11:39:56;;;;;;;6.38;2.28;;;;;;;28.28;25.49;98586.56;5014893;28;20033;-74
2022/05/23 11:42:24;;;;;;;3.95;2.60;;;;;;;27.95;26.30;98575.66;5012996;28;20120;-73
2022/05/23 11:44:50;;;;;;;9.30;2.70;;;;;;;27.36;27.31;98584.25;5014399;28;20041;-73
2022/05/23 11:47:21;;;;;;;4.55;2.10;;;;;;;28.06;26.34;98585.91;5013020;28;20037;-73
2022/05/23 11:50:13;;;;;;;3.80;2.50;;;;;;;28.13;26.36;98574.88;5021135;28;20018;-74
2022/05/23 11:52:50;;;;;;;4.22;1.65;;;;;;;28.00;26.32;98583.63;5027999;28;20052;-73
2022/05/23 11:55:49;;;;;;;4.13;2.95;;;;;;;28.30;26.67;98580.34;5025716;28;20081;-73
2022/05/23 11:58:26;;;;;;;3.00;2.28;;;;;;;28.55;25.83;98579.22;5014165;28;20064;-73
2022/05/23 12:01:07;;;;;;;3.15;1.83;;;;;;;28.26;25.74;98576.84;5014100;28;20032;-73
2022/05/23 12:03:56;;;;;;;4.53;1.95;;;;;;;28.91;26.03;98568.13;5014860;28;20127;-73
2022/05/23 12:06:24;;;;;;;2.23;2.03;;;;;;;28.59;25.04;98567.53;4995480;28;20045;-74
2022/05/23 12:09:16;;;;;;;4.43;2.30;;;;;;;28.37;24.57;98570.59;5012760;28;20084;-73
2022/05/23 12:11:43;;;;;;;6.03;2.05;;;;;;;28.24;25.27;98570.78;5013836;28;20017;-73
2022/05/23 12:14:28;;;;;;;8.38;3.60;;;;;;;28.34;26.39;98571.56;5013919;28;20022;-73
2022/05/23 12:16:56;;;;;;;8.63;2.63;;;;;;;28.34;25.48;98574.44;5013815;28;20018;-74
2022/05/23 12:19:51;;;;;;;9.52;2.03;;;;;;;28.53;25.48;98570.25;5016258;28;20041;-74
2022/05/23 12:22:50;;;;;;;11.35;2.83;;;;;;;28.54;25.28;98573.94;5013778;28;20048;-74
2022/05/23 12:25:21;;;;;;;6.20;2.42;;;;;;;28.63;24.60;98573.13;5014425;28;20463;-74
2022/05/23 12:27:49;;;;;;;2.75;2.05;;;;;;;28.56;24.70;98565.63;5011362;28;20096;-74
2022/05/23 12:30:21;;;;;;;5.25;1.85;;;;;;;28.65;24.94;98568.47;5014038;28;20048;-74
2022/05/23 12:32:49;;;;;;;8.38;2.35;;;;;;;28.49;24.64;98571.72;5013426;28;20527;-75
2022/05/23 12:35:17;;;;;;;17.58;1.80;;;;;;;28.47;24.61;98565.63;5014810;28;20036;-75
2022/05/23 12:38:02;;;;;;;6.22;1.90;;;;;;;28.53;24.82;98555.88;5024242;28;20460;-73
2022/05/23 12:40:53;;;;;;;5.75;2.03;;;;;;;28.82;24.75;98565.28;5001151;28;20583;-74